Time;durP1;ratioP1;P1;durP2;ratioP2;P2;SDS_P1;SDS_P2;PMS_P1;PMS_P2;Temp;Humidity;BMP_temperature;BMP_pressure;BME280_temperature;BME280_humidity;BME280_pressure;Samples;Min_cycle;Max_cycle;Signal;HPM_P1;HPM_P2
2022/03/27 00:02:36;;;;;;;3.13;1.60;;;13.20;63.90;;;;;;20810078;28;20453;-78
2022/03/27 00:12:37;;;;;;;1.90;0.90;;;13.30;63.90;;;;;;20809919;28;20041;-78
2022/03/27 00:22:37;;;;;;;2.10;1.40;;;13.20;63.90;;;;;;20825601;28;20044;-79
2022/03/27 00:32:38;;;;;;;3.17;1.38;;;13.20;63.90;;;;;;20807722;28;20045;-78
2022/03/27 00:42:39;;;;;;;1.20;0.85;;;13.20;63.80;;;;;;20808887;28;20033;-78
2022/03/27 00:52:39;;;;;;;2.70;1.50;;;13.20;63.70;;;;;;20824397;28;20565;-80
2022/03/27 01:02:41;;;;;;;3.88;1.50;;;13.10;63.70;;;;;;20806763;28;20516;-79
2022/03/27 01:12:42;;;;;;;3.00;1.70;;;13.10;63.70;;;;;;20805583;28;20075;-78
2022/03/27 01:22:42;;;;;;;1.83;1.00;;;13.10;63.60;;;;;;20794584;28;20448;-78
2022/03/27 01:32:43;;;;;;;2.38;1.45;;;13.10;63.60;;;;;;20805631;28;20030;-77
2022/03/27 01:42:44;;;;;;;3.08;1.60;;;13.10;63.60;;;;;;20820248;28;20044;-78
2022/03/27 01:52:45;;;;;;;3.67;1.80;;;13.10;63.60;;;;;;20819404;28;20064;-78
2022/03/27 02:02:46;;;;;;;3.42;1.55;;;13.10;63.60;;;;;;20801774;28;20040;-78
2022/03/27 02:12:46;;;;;;;3.00;1.30;;;13.10;63.60;;;;;;21159961;22;20045;-79
2022/03/27 02:22:47;;;;;;;1.77;1.33;;;13.00;63.60;;;;;;20795293;28;20044;-77
2022/03/27 02:32:47;;;;;;;3.35;1.58;;;13.00;63.60;;;;;;20799243;28;20120;-79
2022/03/27 02:42:48;;;;;;;3.80;2.03;;;13.00;63.50;;;;;;20831212;28;20044;-77
2022/03/27 02:52:49;;;;;;;3.38;1.85;;;13.00;63.50;;;;;;20798527;28;20360;-79
2022/03/27 03:02:50;;;;;;;2.90;1.38;;;13.00;63.60;;;;;;20781034;28;20079;-78
2022/03/27 03:12:51;;;;;;;3.35;1.85;;;13.00;63.60;;;;;;20826513;28;20041;-78
2022/03/27 03:22:52;;;;;;;2.08;1.40;;;13.00;63.60;;;;;;20763205;28;20120;-79
2022/03/27 03:32:52;;;;;;;2.33;1.42;;;13.00;63.60;;;;;;20778440;28;20136;-79
2022/03/27 03:42:53;;;;;;;2.47;1.10;;;12.90;63.50;;;;;;20762253;28;20033;-78
2022/03/27 03:52:54;;;;;;;2.55;1.42;;;12.90;63.50;;;;;;20777323;28;20060;-79
2022/03/27 04:02:54;;;;;;;4.07;1.65;;;12.90;63.60;;;;;;20778532;28;20033;-78
2022/03/27 04:12:55;;;;;;;3.75;1.77;;;12.90;63.50;;;;;;20760109;28;20041;-78
2022/03/27 04:22:55;;;;;;;1.88;1.23;;;12.90;63.60;;;;;;20793350;28;20594;-79
2022/03/27 04:32:57;;;;;;;3.50;1.27;;;12.90;63.60;;;;;;20775889;28;20033;-79
2022/03/27 04:42:58;;;;;;;3.08;1.70;;;12.90;63.60;;;;;;20775158;28;20395;-80
2022/03/27 04:52:58;;;;;;;4.78;1.85;;;12.90;64.20;;;;;;20791178;28;20033;-78
2022/03/27 05:02:59;;;;;;;2.38;1.30;;;12.80;63.50;;;;;;20788916;28;20037;-78
2022/03/27 05:12:59;;;;;;;2.80;1.67;;;12.80;63.50;;;;;;20806780;28;20049;-78
2022/03/27 05:23:02;;;;;;;3.92;1.58;;;12.80;63.60;;;;;;20787337;28;20052;-77
2022/03/27 05:33:03;;;;;;;2.45;1.50;;;12.80;63.50;;;;;;20821743;28;20076;-78
2022/03/27 05:43:05;;;;;;;1.38;1.10;;;12.80;63.50;;;;;;20787265;28;20034;-79
2022/03/27 05:53:05;;;;;;;2.38;1.20;;;12.80;63.50;;;;;;20771461;28;20080;-78
2022/03/27 06:03:06;;;;;;;2.03;1.27;;;12.80;63.60;;;;;;20786618;28;20044;-78
2022/03/27 06:13:07;;;;;;;4.93;1.60;;;12.80;63.60;;;;;;20802034;28;20053;-77
2022/03/27 06:23:07;;;;;;;1.75;1.48;;;12.80;63.60;;;;;;20785321;28;20774;-79
2022/03/27 06:33:08;;;;;;;2.07;1.20;;;12.80;63.60;;;;;;20775471;28;20503;-75
2022/03/27 06:43:08;;;;;;;10.32;3.10;;;12.70;63.50;;;;;;20796959;28;20316;-76
2022/03/27 06:53:09;;;;;;;11.65;1.60;;;12.80;63.80;;;;;;20779018;28;20087;-72
2022/03/27 07:03:10;;;;;;;9.18;1.58;;;12.80;64.20;;;;;;20761417;28;20036;-77
2022/03/27 07:13:11;;;;;;;2.22;1.30;;;12.80;64.40;;;;;;20788673;28;20128;-74
2022/03/27 07:23:17;;;;;;;1.15;0.93;;;12.80;64.40;;;;;;20802235;28;20037;-80
2022/03/27 07:33:19;;;;;;;1.87;0.90;;;12.70;64.30;;;;;;20787699;28;20045;-75
2022/03/27 07:43:21;;;;;;;3.35;1.23;;;12.80;64.40;;;;;;20758270;28;20037;-75
2022/03/27 07:53:21;;;;;;;7.72;1.35;;;12.80;64.50;;;;;;20769694;28;20478;-78
2022/03/27 08:03:22;;;;;;;10.70;3.47;;;12.90;64.30;;;;;;20709736;28;20132;-77
2022/03/27 08:13:22;;;;;;;6.80;4.35;;;12.90;64.50;;;;;;20748852;28;20318;-76
2022/03/27 08:23:24;;;;;;;21.05;5.88;;;12.80;64.50;;;;;;20770768;28;20527;-77
2022/03/27 08:33:25;;;;;;;26.40;7.72;;;12.70;64.60;;;;;;20764487;28;20715;-75
2022/03/27 08:43:25;;;;;;;18.23;7.18;;;12.70;64.80;;;;;;20791413;28;20034;-77
2022/03/27 08:53:30;;;;;;;16.67;7.55;;;12.70;65.10;;;;;;20787853;28;20128;-76
2022/03/27 09:03:31;;;;;;;14.40;7.78;;;12.70;65.50;;;;;;20818985;28;20043;-75
2022/03/27 09:13:32;;;;;;;13.82;6.70;;;12.80;65.60;;;;;;20816702;28;20049;-75
2022/03/27 09:23:35;;;;;;;13.20;7.30;;;12.80;65.50;;;;;;20799706;28;20468;-76
2022/03/27 09:33:48;;;;;;;16.98;7.90;;;12.80;65.70;;;;;;20799698;28;20044;-76
2022/03/27 09:43:59;;;;;;;24.63;9.77;;;12.80;66.10;;;;;;20833185;28;20041;-75
2022/03/27 09:54:00;;;;;;;16.83;6.93;;;12.80;66.60;;;;;;20796683;28;20037;-77
2022/03/27 10:04:13;;;;;;;15.85;7.00;;;12.80;66.80;;;;;;20800014;28;20045;-77
2022/03/27 10:14:13;;;;;;;15.50;6.78;;;12.80;66.90;;;;;;20804005;28;20045;-78
2022/03/27 10:24:15;;;;;;;13.82;6.35;;;12.80;66.90;;;;;;20816876;28;20117;-82
2022/03/27 10:34:15;;;;;;;11.23;5.15;;;12.80;66.80;;;;;;20798993;28;20037;-75
2022/03/27 10:44:21;;;;;;;14.77;6.25;;;12.80;66.80;;;;;;20781170;28;20129;-81
2022/03/27 10:54:21;;;;;;;8.23;5.55;;;12.80;66.80;;;;;;20781155;28;20033;-78
2022/03/27 11:04:34;;;;;;;6.15;4.25;;;12.80;66.80;;;;;;20777686;28;20388;-73
2022/03/27 11:14:58;;;;;;;6.15;3.30;;;12.80;66.70;;;;;;20809482;28;20045;-73
2022/03/27 11:25:33;;;;;;;9.68;3.95;;;12.80;66.50;;;;;;20791412;28;20087;-71
2022/03/27 11:35:34;;;;;;;5.88;3.10;;;12.90;66.60;;;;;;20807992;28;20056;-74
2022/03/27 11:45:39;;;;;;;9.95;4.00;;;12.80;66.60;;;;;;20774156;28;20045;-74
2022/03/27 11:55:39;;;;;;;5.40;2.67;;;12.90;66.60;;;;;;20758135;28;20045;-73
2022/03/27 12:05:40;;;;;;;7.03;3.28;;;12.80;66.60;;;;;;20775745;28;20052;-74
2022/03/27 12:15:52;;;;;;;7.70;4.30;;;12.90;66.50;;;;;;20771179;28;20045;-74
2022/03/27 12:29:39;;;;;;;13.32;5.43;;;12.90;66.50;;;;;;20756121;28;20738;-74
2022/03/27 12:36:26;;;;;;;8.23;4.18;;;12.90;66.60;;;;;;20820485;28;20423;-74
2022/03/27 12:46:27;;;;;;;5.07;2.63;;;13.00;66.50;;;;;;20798788;28;20044;-74
2022/03/27 12:56:27;;;;;;;7.95;3.50;;;13.00;66.50;;;;;;20772495;28;20041;-74
2022/03/27 13:06:36;;;;;;;6.78;3.03;;;13.00;66.40;;;;;;20788318;28;20133;-74
2022/03/27 13:16:48;;;;;;;4.90;2.40;;;13.10;66.50;;;;;;20775966;28;20096;-74
2022/03/27 13:26:50;;;;;;;7.78;2.80;;;13.10;66.50;;;;;;20803568;28;20412;-74
2022/03/27 13:36:52;;;;;;;5.90;2.75;;;13.10;66.30;;;;;;20770427;28;20138;-74
2022/03/27 13:46:53;;;;;;;5.55;3.28;;;13.10;66.20;;;;;;20787553;28;20480;-75
2022/03/27 13:56:54;;;;;;;6.20;4.20;;;13.10;66.10;;;;;;20820664;28;20121;-74
2022/03/27 14:06:54;;;;;;;3.58;2.33;;;13.10;66.10;;;;;;20835718;28;20390;-74
2022/03/27 14:16:55;;;;;;;11.68;3.53;;;13.20;66.10;;;;;;20835395;28;20501;-73
2022/03/27 14:26:55;;;;;;;9.00;3.25;;;13.20;65.90;;;;;;20833146;28;20717;-73
2022/03/27 14:36:56;;;;;;;9.63;4.13;;;13.30;65.80;;;;;;20814530;28;20464;-74
2022/03/27 14:46:59;;;;;;;8.05;4.43;;;13.30;65.60;;;;;;20790983;28;20581;-78
2022/03/27 14:56:59;;;;;;;7.85;4.15;;;13.40;65.30;;;;;;20769471;28;20387;-75
2022/03/27 15:07:00;;;;;;;8.00;4.75;;;13.50;65.10;;;;;;20798111;28;20120;-76
2022/03/27 15:17:01;;;;;;;8.55;4.07;;;13.60;64.90;;;;;;20717749;28;20324;-76
2022/03/27 15:27:02;;;;;;;3.83;2.30;;;13.70;64.40;;;;;;20760598;28;20072;-78
2022/03/27 15:37:03;;;;;;;6.75;3.55;;;13.80;64.20;;;;;;20812990;28;20033;-77
2022/03/27 15:47:05;;;;;;;10.32;3.97;;;13.90;63.80;;;;;;20792990;28;20064;-79
2022/03/27 15:57:05;;;;;;;3.63;2.25;;;14.00;63.30;;;;;;20794290;28;20037;-78
2022/03/27 16:07:06;;;;;;;5.43;2.05;;;14.10;63.00;;;;;;20805558;28;20479;-74
2022/03/27 16:17:11;;;;;;;4.45;2.08;;;14.10;62.90;;;;;;20787574;28;20066;-76
2022/03/27 16:27:13;;;;;;;6.05;2.03;;;14.10;62.90;;;;;;20770147;28;20430;-79
2022/03/27 16:37:14;;;;;;;4.72;2.42;;;14.10;62.90;;;;;;20775360;28;20033;-79
2022/03/27 16:47:14;;;;;;;3.85;2.17;;;14.00;62.80;;;;;;20822837;28;20036;-77
2022/03/27 16:57:15;;;;;;;6.13;1.92;;;14.00;63.00;;;;;;20830398;28;20107;-79
2022/03/27 17:07:18;;;;;;;5.07;2.10;;;14.00;63.10;;;;;;20824627;28;20429;-79
2022/03/27 17:17:18;;;;;;;3.88;2.05;;;13.90;63.10;;;;;;20770507;28;20046;-76
2022/03/27 17:27:19;;;;;;;5.55;2.28;;;13.90;63.20;;;;;;20795248;28;20407;-75
2022/03/27 17:37:21;;;;;;;3.10;1.77;;;13.90;63.30;;;;;;20799843;28;20053;-76
2022/03/27 17:47:21;;;;;;;5.10;1.98;;;13.70;63.40;;;;;;20782622;28;20675;-76
2022/03/27 17:57:22;;;;;;;2.80;1.53;;;13.70;63.50;;;;;;20797824;28;20080;-76
2022/03/27 18:07:22;;;;;;;5.43;2.20;;;13.60;63.60;;;;;;20796486;28;20343;-75
2022/03/27 18:17:23;;;;;;;3.53;1.50;;;13.60;63.70;;;;;;20794713;28;20052;-76
2022/03/27 18:27:24;;;;;;;3.53;1.83;;;13.60;63.80;;;;;;20807173;28;20116;-75
2022/03/27 18:37:24;;;;;;;2.53;1.55;;;13.50;63.80;;;;;;20805445;28;20468;-75
2022/03/27 18:47:25;;;;;;;6.18;2.05;;;13.50;63.90;;;;;;20810660;28;20059;-75
2022/03/27 18:57:25;;;;;;;2.72;1.58;;;13.50;63.90;;;;;;20779265;28;20160;-75
2022/03/27 19:07:26;;;;;;;2.97;1.67;;;13.40;64.00;;;;;;20777746;28;20053;-75
2022/03/27 19:17:42;;;;;;;3.27;1.70;;;13.40;64.60;;;;;;20792191;28;20052;-75
2022/03/27 19:27:43;;;;;;;2.53;1.50;;;13.40;63.90;;;;;;20792753;28;20275;-75
2022/03/27 19:37:43;;;;;;;3.38;1.80;;;13.40;63.90;;;;;;20792029;28;20033;-75
2022/03/27 19:47:44;;;;;;;3.20;1.70;;;13.30;63.80;;;;;;20788027;28;20033;-75
2022/03/27 19:57:44;;;;;;;2.75;1.63;;;13.30;63.90;;;;;;20790663;28;20108;-74
2022/03/27 20:07:45;;;;;;;3.38;1.50;;;13.30;63.90;;;;;;20806580;28;20044;-74
2022/03/27 20:17:45;;;;;;;3.43;1.90;;;13.30;63.90;;;;;;20756817;28;20060;-74
2022/03/27 20:27:46;;;;;;;2.78;1.92;;;13.20;63.90;;;;;;20772789;28;20319;-75
2022/03/27 20:37:47;;;;;;;6.25;2.25;;;13.20;63.90;;;;;;20788871;28;20033;-74
2022/03/27 20:47:47;;;;;;;2.28;1.70;;;13.20;63.80;;;;;;20755318;28;20462;-75
2022/03/27 20:57:48;;;;;;;3.75;1.52;;;13.20;63.80;;;;;;20804124;28;20041;-74
2022/03/27 21:07:49;;;;;;;5.03;1.73;;;13.20;63.70;;;;;;20787938;28;20120;-73
2022/03/27 21:17:49;;;;;;;2.63;1.63;;;13.20;63.70;;;;;;20770817;28;20104;-74
2022/03/27 21:27:50;;;;;;;4.90;2.30;;;13.10;63.60;;;;;;20772080;28;20095;-74
2022/03/27 21:37:50;;;;;;;3.95;1.80;;;13.10;63.50;;;;;;20805768;28;20084;-75
2022/03/27 21:47:51;;;;;;;4.32;2.08;;;13.10;63.40;;;;;;20769435;28;20037;-74
2022/03/27 21:57:52;;;;;;;2.70;1.73;;;13.10;63.30;;;;;;20767605;28;20041;-74
2022/03/27 22:07:52;;;;;;;4.50;2.80;;;13.10;63.30;;;;;;20799855;28;20167;-74
2022/03/27 22:17:54;;;;;;;3.65;2.13;;;13.10;63.20;;;;;;20798801;28;20049;-74
2022/03/27 22:27:54;;;;;;;2.67;1.90;;;13.10;63.10;;;;;;20797413;28;20029;-74
2022/03/27 22:37:55;;;;;;;3.22;2.22;;;13.00;63.00;;;;;;20812430;28;20039;-74
2022/03/27 22:47:58;;;;;;;3.40;2.03;;;13.00;63.00;;;;;;20796448;28;20083;-73
2022/03/27 22:57:59;;;;;;;4.15;2.28;;;13.00;62.90;;;;;;20789411;28;20037;-75
2022/03/27 23:08:00;;;;;;;3.50;2.15;;;13.00;62.80;;;;;;20810926;28;20040;-76
2022/03/27 23:18:00;;;;;;;4.55;2.15;;;13.00;62.80;;;;;;20810222;28;20045;-74
2022/03/27 23:28:01;;;;;;;4.97;2.65;;;13.00;62.70;;;;;;20792968;28;20127;-74
2022/03/27 23:38:02;;;;;;;4.57;2.40;;;12.90;62.70;;;;;;20792222;28;20049;-76
2022/03/27 23:48:03;;;;;;;3.25;2.33;;;12.90;62.50;;;;;;20792858;28;20306;-73
2022/03/27 23:58:04;;;;;;;2.80;1.77;;;12.90;62.50;;;;;;20790654;28;20128;-74
